sensor_id;sensor_type;location;lat;lon;timestamp;P1;durP1;ratioP1;P2;durP2;ratioP2
23658;SDS011;12006;42.666;23.326;2023-04-24T00:00:32;7.33;;;4.90;;
23658;SDS011;12006;42.666;23.326;2023-04-24T00:02:58;6.70;;;4.93;;
23658;SDS011;12006;42.666;23.326;2023-04-24T00:05:23;6.23;;;4.90;;
23658;SDS011;12006;42.666;23.326;2023-04-24T00:07:49;5.87;;;4.87;;
23658;SDS011;12006;42.666;23.326;2023-04-24T00:10:18;6.00;;;4.90;;
23658;SDS011;12006;42.666;23.326;2023-04-24T00:12:43;6.57;;;5.20;;
23658;SDS011;12006;42.666;23.326;2023-04-24T00:15:09;5.43;;;4.93;;
23658;SDS011;12006;42.666;23.326;2023-04-24T00:17:36;5.33;;;4.83;;
23658;SDS011;12006;42.666;23.326;2023-04-24T00:20:02;8.13;;;6.30;;
23658;SDS011;12006;42.666;23.326;2023-04-24T00:22:29;7.27;;;5.30;;
23658;SDS011;12006;42.666;23.326;2023-04-24T00:24:55;7.03;;;5.73;;
23658;SDS011;12006;42.666;23.326;2023-04-24T00:27:21;9.63;;;6.47;;
23658;SDS011;12006;42.666;23.326;2023-04-24T00:29:47;6.97;;;5.20;;
23658;SDS011;12006;42.666;23.326;2023-04-24T00:32:12;6.53;;;5.20;;
23658;SDS011;12006;42.666;23.326;2023-04-24T00:34:38;4.80;;;4.37;;
23658;SDS011;12006;42.666;23.326;2023-04-24T00:37:04;6.33;;;5.50;;
23658;SDS011;12006;42.666;23.326;2023-04-24T00:39:30;5.87;;;5.27;;
23658;SDS011;12006;42.666;23.326;2023-04-24T00:41:55;6.73;;;4.40;;
23658;SDS011;12006;42.666;23.326;2023-04-24T00:44:21;6.03;;;4.80;;
23658;SDS011;12006;42.666;23.326;2023-04-24T00:46:47;7.10;;;5.30;;
23658;SDS011;12006;42.666;23.326;2023-04-24T00:49:18;5.80;;;4.57;;
23658;SDS011;12006;42.666;23.326;2023-04-24T00:51:43;5.87;;;4.93;;
23658;SDS011;12006;42.666;23.326;2023-04-24T00:54:11;6.17;;;4.13;;
23658;SDS011;12006;42.666;23.326;2023-04-24T00:56:37;5.40;;;3.97;;
23658;SDS011;12006;42.666;23.326;2023-04-24T00:59:02;4.33;;;3.93;;
23658;SDS011;12006;42.666;23.326;2023-04-24T01:01:29;4.30;;;3.90;;
23658;SDS011;12006;42.666;23.326;2023-04-24T01:03:55;5.80;;;4.30;;
23658;SDS011;12006;42.666;23.326;2023-04-24T01:06:22;4.50;;;3.93;;
23658;SDS011;12006;42.666;23.326;2023-04-24T01:08:51;4.07;;;3.70;;
23658;SDS011;12006;42.666;23.326;2023-04-24T01:11:16;4.27;;;3.77;;
23658;SDS011;12006;42.666;23.326;2023-04-24T01:13:42;5.47;;;4.13;;
23658;SDS011;12006;42.666;23.326;2023-04-24T01:16:08;6.53;;;4.50;;
23658;SDS011;12006;42.666;23.326;2023-04-24T01:18:33;4.33;;;3.90;;
23658;SDS011;12006;42.666;23.326;2023-04-24T01:20:59;6.63;;;4.93;;
23658;SDS011;12006;42.666;23.326;2023-04-24T01:23:28;5.07;;;4.10;;
23658;SDS011;12006;42.666;23.326;2023-04-24T01:25:53;5.00;;;4.50;;
23658;SDS011;12006;42.666;23.326;2023-04-24T01:28:19;4.23;;;3.83;;
23658;SDS011;12006;42.666;23.326;2023-04-24T01:30:44;5.50;;;3.83;;
23658;SDS011;12006;42.666;23.326;2023-04-24T01:33:10;4.40;;;4.00;;
23658;SDS011;12006;42.666;23.326;2023-04-24T01:35:36;4.67;;;3.20;;
23658;SDS011;12006;42.666;23.326;2023-04-24T01:38:02;3.50;;;3.20;;
23658;SDS011;12006;42.666;23.326;2023-04-24T01:40:28;3.37;;;3.07;;
23658;SDS011;12006;42.666;23.326;2023-04-24T01:42:53;6.00;;;2.87;;
23658;SDS011;12006;42.666;23.326;2023-04-24T01:45:19;3.67;;;3.37;;
23658;SDS011;12006;42.666;23.326;2023-04-24T01:47:45;4.27;;;3.63;;
23658;SDS011;12006;42.666;23.326;2023-04-24T01:50:10;3.03;;;2.83;;
23658;SDS011;12006;42.666;23.326;2023-04-24T01:52:36;3.80;;;3.20;;
23658;SDS011;12006;42.666;23.326;2023-04-24T01:55:04;4.33;;;3.50;;
23658;SDS011;12006;42.666;23.326;2023-04-24T01:57:31;3.60;;;2.97;;
23658;SDS011;12006;42.666;23.326;2023-04-24T01:59:56;4.10;;;3.37;;
23658;SDS011;12006;42.666;23.326;2023-04-24T02:02:22;3.77;;;3.27;;
23658;SDS011;12006;42.666;23.326;2023-04-24T02:04:49;4.43;;;3.47;;
23658;SDS011;12006;42.666;23.326;2023-04-24T02:07:16;3.83;;;3.27;;
23658;SDS011;12006;42.666;23.326;2023-04-24T02:09:41;5.20;;;3.30;;
23658;SDS011;12006;42.666;23.326;2023-04-24T02:12:06;4.47;;;3.23;;
23658;SDS011;12006;42.666;23.326;2023-04-24T02:14:32;4.40;;;3.43;;
23658;SDS011;12006;42.666;23.326;2023-04-24T02:16:57;3.53;;;3.23;;
23658;SDS011;12006;42.666;23.326;2023-04-24T02:19:23;4.17;;;3.77;;
23658;SDS011;12006;42.666;23.326;2023-04-24T02:21:48;3.77;;;3.03;;
23658;SDS011;12006;42.666;23.326;2023-04-24T02:24:13;3.47;;;3.17;;
23658;SDS011;12006;42.666;23.326;2023-04-24T02:26:39;3.80;;;3.20;;
23658;SDS011;12006;42.666;23.326;2023-04-24T02:29:05;4.53;;;4.13;;
23658;SDS011;12006;42.666;23.326;2023-04-24T02:31:30;6.63;;;3.93;;
23658;SDS011;12006;42.666;23.326;2023-04-24T02:33:55;6.03;;;4.10;;
23658;SDS011;12006;42.666;23.326;2023-04-24T02:36:21;3.57;;;3.27;;
23658;SDS011;12006;42.666;23.326;2023-04-24T02:38:46;4.60;;;3.70;;
23658;SDS011;12006;42.666;23.326;2023-04-24T02:41:11;4.07;;;3.63;;
23658;SDS011;12006;42.666;23.326;2023-04-24T02:43:37;5.30;;;4.00;;
23658;SDS011;12006;42.666;23.326;2023-04-24T02:46:02;4.53;;;3.90;;
23658;SDS011;12006;42.666;23.326;2023-04-24T02:48:28;3.83;;;3.43;;
23658;SDS011;12006;42.666;23.326;2023-04-24T02:50:53;4.47;;;3.40;;
23658;SDS011;12006;42.666;23.326;2023-04-24T02:53:19;4.67;;;3.73;;
23658;SDS011;12006;42.666;23.326;2023-04-24T02:55:44;3.97;;;3.60;;
23658;SDS011;12006;42.666;23.326;2023-04-24T02:58:10;4.80;;;3.97;;
23658;SDS011;12006;42.666;23.326;2023-04-24T03:00:37;4.83;;;4.43;;
23658;SDS011;12006;42.666;23.326;2023-04-24T03:03:03;4.43;;;3.90;;
23658;SDS011;12006;42.666;23.326;2023-04-24T03:05:29;4.30;;;3.90;;
23658;SDS011;12006;42.666;23.326;2023-04-24T03:07:55;5.03;;;4.03;;
23658;SDS011;12006;42.666;23.326;2023-04-24T03:10:21;6.70;;;4.03;;
23658;SDS011;12006;42.666;23.326;2023-04-24T03:12:47;4.17;;;3.77;;
23658;SDS011;12006;42.666;23.326;2023-04-24T03:15:13;5.27;;;4.30;;
23658;SDS011;12006;42.666;23.326;2023-04-24T03:17:39;5.50;;;4.40;;
23658;SDS011;12006;42.666;23.326;2023-04-24T03:20:04;5.70;;;4.67;;
23658;SDS011;12006;42.666;23.326;2023-04-24T03:22:31;6.13;;;4.57;;
23658;SDS011;12006;42.666;23.326;2023-04-24T03:24:58;7.53;;;6.20;;
23658;SDS011;12006;42.666;23.326;2023-04-24T03:27:23;8.33;;;6.20;;
23658;SDS011;12006;42.666;23.326;2023-04-24T03:29:48;6.83;;;5.83;;
23658;SDS011;12006;42.666;23.326;2023-04-24T03:32:18;6.97;;;5.80;;
23658;SDS011;12006;42.666;23.326;2023-04-24T03:34:44;7.73;;;5.90;;
23658;SDS011;12006;42.666;23.326;2023-04-24T03:37:10;6.40;;;5.20;;
23658;SDS011;12006;42.666;23.326;2023-04-24T03:39:35;5.43;;;4.87;;
23658;SDS011;12006;42.666;23.326;2023-04-24T03:42:00;8.10;;;5.63;;
23658;SDS011;12006;42.666;23.326;2023-04-24T03:44:26;7.30;;;5.00;;
23658;SDS011;12006;42.666;23.326;2023-04-24T03:46:51;6.67;;;3.97;;
23658;SDS011;12006;42.666;23.326;2023-04-24T03:49:17;10.63;;;5.57;;
23658;SDS011;12006;42.666;23.326;2023-04-24T03:51:42;7.43;;;5.63;;
23658;SDS011;12006;42.666;23.326;2023-04-24T03:54:08;8.30;;;6.03;;
23658;SDS011;12006;42.666;23.326;2023-04-24T03:56:33;7.17;;;5.07;;
23658;SDS011;12006;42.666;23.326;2023-04-24T03:58:58;5.77;;;4.97;;
23658;SDS011;12006;42.666;23.326;2023-04-24T04:01:24;5.73;;;4.77;;
23658;SDS011;12006;42.666;23.326;2023-04-24T04:03:49;6.83;;;5.43;;
23658;SDS011;12006;42.666;23.326;2023-04-24T04:06:15;5.90;;;5.30;;
23658;SDS011;12006;42.666;23.326;2023-04-24T04:08:40;5.50;;;5.00;;
23658;SDS011;12006;42.666;23.326;2023-04-24T04:11:06;5.97;;;5.13;;
23658;SDS011;12006;42.666;23.326;2023-04-24T04:13:31;6.10;;;5.10;;
23658;SDS011;12006;42.666;23.326;2023-04-24T04:15:56;8.63;;;5.43;;
23658;SDS011;12006;42.666;23.326;2023-04-24T04:18:23;5.33;;;4.77;;
23658;SDS011;12006;42.666;23.326;2023-04-24T04:20:49;6.53;;;5.30;;
23658;SDS011;12006;42.666;23.326;2023-04-24T04:23:14;4.70;;;4.20;;
23658;SDS011;12006;42.666;23.326;2023-04-24T04:25:40;5.37;;;4.37;;
23658;SDS011;12006;42.666;23.326;2023-04-24T04:28:05;7.43;;;5.17;;
23658;SDS011;12006;42.666;23.326;2023-04-24T04:30:31;5.43;;;4.93;;
23658;SDS011;12006;42.666;23.326;2023-04-24T04:32:57;6.90;;;5.07;;
23658;SDS011;12006;42.666;23.326;2023-04-24T04:35:23;7.60;;;5.03;;
23658;SDS011;12006;42.666;23.326;2023-04-24T04:37:49;5.10;;;4.53;;
23658;SDS011;12006;42.666;23.326;2023-04-24T04:40:16;6.73;;;4.60;;
23658;SDS011;12006;42.666;23.326;2023-04-24T04:42:42;4.47;;;4.07;;
23658;SDS011;12006;42.666;23.326;2023-04-24T04:45:10;4.33;;;3.93;;
23658;SDS011;12006;42.666;23.326;2023-04-24T04:47:36;3.90;;;3.47;;
23658;SDS011;12006;42.666;23.326;2023-04-24T04:50:02;4.10;;;3.60;;
23658;SDS011;12006;42.666;23.326;2023-04-24T04:52:28;3.67;;;3.33;;
23658;SDS011;12006;42.666;23.326;2023-04-24T04:54:54;6.07;;;3.67;;
23658;SDS011;12006;42.666;23.326;2023-04-24T04:57:20;4.67;;;4.27;;
23658;SDS011;12006;42.666;23.326;2023-04-24T04:59:46;5.27;;;3.20;;
23658;SDS011;12006;42.666;23.326;2023-04-24T05:02:11;4.93;;;3.50;;
23658;SDS011;12006;42.666;23.326;2023-04-24T05:04:37;4.57;;;3.47;;
23658;SDS011;12006;42.666;23.326;2023-04-24T05:07:02;4.23;;;3.53;;
23658;SDS011;12006;42.666;23.326;2023-04-24T05:09:28;4.03;;;3.60;;
23658;SDS011;12006;42.666;23.326;2023-04-24T05:11:54;4.17;;;3.77;;
23658;SDS011;12006;42.666;23.326;2023-04-24T05:14:21;4.27;;;3.63;;
23658;SDS011;12006;42.666;23.326;2023-04-24T05:16:46;4.73;;;3.77;;
23658;SDS011;12006;42.666;23.326;2023-04-24T05:19:12;6.73;;;5.20;;
23658;SDS011;12006;42.666;23.326;2023-04-24T05:21:39;7.13;;;5.97;;
23658;SDS011;12006;42.666;23.326;2023-04-24T05:24:05;5.27;;;4.13;;
23658;SDS011;12006;42.666;23.326;2023-04-24T05:26:31;4.37;;;3.00;;
23658;SDS011;12006;42.666;23.326;2023-04-24T05:28:56;6.33;;;3.87;;
23658;SDS011;12006;42.666;23.326;2023-04-24T05:31:22;4.70;;;3.30;;
23658;SDS011;12006;42.666;23.326;2023-04-24T05:33:47;3.13;;;2.83;;
23658;SDS011;12006;42.666;23.326;2023-04-24T05:36:13;3.20;;;2.90;;
23658;SDS011;12006;42.666;23.326;2023-04-24T05:38:38;4.27;;;3.10;;
23658;SDS011;12006;42.666;23.326;2023-04-24T05:41:04;5.83;;;3.77;;
23658;SDS011;12006;42.666;23.326;2023-04-24T05:43:29;5.10;;;3.13;;
23658;SDS011;12006;42.666;23.326;2023-04-24T05:45:55;3.43;;;3.13;;
23658;SDS011;12006;42.666;23.326;2023-04-24T05:48:20;3.80;;;3.50;;
23658;SDS011;12006;42.666;23.326;2023-04-24T05:50:47;4.00;;;3.47;;
23658;SDS011;12006;42.666;23.326;2023-04-24T05:53:13;3.87;;;3.57;;
23658;SDS011;12006;42.666;23.326;2023-04-24T05:55:38;4.57;;;3.67;;
23658;SDS011;12006;42.666;23.326;2023-04-24T05:58:04;4.60;;;3.97;;
23658;SDS011;12006;42.666;23.326;2023-04-24T06:00:29;4.40;;;3.90;;
23658;SDS011;12006;42.666;23.326;2023-04-24T06:02:55;4.37;;;3.97;;
23658;SDS011;12006;42.666;23.326;2023-04-24T06:05:20;4.60;;;3.73;;
23658;SDS011;12006;42.666;23.326;2023-04-24T06:07:47;5.17;;;4.20;;
23658;SDS011;12006;42.666;23.326;2023-04-24T06:10:13;4.33;;;3.93;;
23658;SDS011;12006;42.666;23.326;2023-04-24T06:12:38;6.20;;;3.97;;
23658;SDS011;12006;42.666;23.326;2023-04-24T06:15:04;4.67;;;4.00;;
23658;SDS011;12006;42.666;23.326;2023-04-24T06:17:30;6.20;;;4.23;;
23658;SDS011;12006;42.666;23.326;2023-04-24T06:19:56;4.73;;;4.17;;
23658;SDS011;12006;42.666;23.326;2023-04-24T06:22:21;6.63;;;4.70;;
23658;SDS011;12006;42.666;23.326;2023-04-24T06:24:46;6.00;;;4.97;;
23658;SDS011;12006;42.666;23.326;2023-04-24T06:27:13;5.57;;;4.63;;
23658;SDS011;12006;42.666;23.326;2023-04-24T06:29:38;5.60;;;4.80;;
23658;SDS011;12006;42.666;23.326;2023-04-24T06:32:04;6.90;;;5.03;;
23658;SDS011;12006;42.666;23.326;2023-04-24T06:34:30;5.80;;;4.77;;
23658;SDS011;12006;42.666;23.326;2023-04-24T06:36:56;5.73;;;5.00;;
23658;SDS011;12006;42.666;23.326;2023-04-24T06:39:21;6.40;;;4.67;;
23658;SDS011;12006;42.666;23.326;2023-04-24T06:41:47;5.47;;;4.93;;
23658;SDS011;12006;42.666;23.326;2023-04-24T06:44:12;7.30;;;5.17;;
23658;SDS011;12006;42.666;23.326;2023-04-24T06:46:39;5.30;;;4.53;;
23658;SDS011;12006;42.666;23.326;2023-04-24T06:49:05;5.53;;;4.23;;
23658;SDS011;12006;42.666;23.326;2023-04-24T06:51:31;5.53;;;4.77;;
23658;SDS011;12006;42.666;23.326;2023-04-24T06:53:58;5.57;;;4.13;;
23658;SDS011;12006;42.666;23.326;2023-04-24T06:56:23;5.77;;;5.17;;
23658;SDS011;12006;42.666;23.326;2023-04-24T06:58:50;5.53;;;4.83;;
23658;SDS011;12006;42.666;23.326;2023-04-24T07:01:16;8.93;;;6.00;;
23658;SDS011;12006;42.666;23.326;2023-04-24T07:03:41;5.73;;;5.10;;
23658;SDS011;12006;42.666;23.326;2023-04-24T07:06:07;5.73;;;5.10;;
23658;SDS011;12006;42.666;23.326;2023-04-24T07:08:32;8.00;;;5.80;;
23658;SDS011;12006;42.666;23.326;2023-04-24T07:10:58;6.93;;;5.10;;
23658;SDS011;12006;42.666;23.326;2023-04-24T07:13:24;5.90;;;4.90;;
23658;SDS011;12006;42.666;23.326;2023-04-24T07:15:50;7.97;;;5.13;;
23658;SDS011;12006;42.666;23.326;2023-04-24T07:18:17;7.57;;;4.57;;
23658;SDS011;12006;42.666;23.326;2023-04-24T07:20:43;5.38;;;4.88;;
23658;SDS011;12006;42.666;23.326;2023-04-24T07:23:08;5.82;;;5.05;;
23658;SDS011;12006;42.666;23.326;2023-04-24T07:25:33;5.32;;;4.82;;
23658;SDS011;12006;42.666;23.326;2023-04-24T07:27:59;5.18;;;4.63;;
23658;SDS011;12006;42.666;23.326;2023-04-24T07:30:25;6.00;;;4.88;;
23658;SDS011;12006;42.666;23.326;2023-04-24T07:32:51;4.20;;;3.80;;
23658;SDS011;12006;42.666;23.326;2023-04-24T07:35:16;7.18;;;5.10;;
23658;SDS011;12006;42.666;23.326;2023-04-24T07:37:41;6.93;;;5.10;;
23658;SDS011;12006;42.666;23.326;2023-04-24T07:40:11;4.85;;;4.40;;
23658;SDS011;12006;42.666;23.326;2023-04-24T07:42:37;5.40;;;4.88;;
23658;SDS011;12006;42.666;23.326;2023-04-24T07:45:03;4.60;;;3.78;;
23658;SDS011;12006;42.666;23.326;2023-04-24T07:47:29;5.10;;;3.88;;
23658;SDS011;12006;42.666;23.326;2023-04-24T07:49:55;5.63;;;4.90;;
23658;SDS011;12006;42.666;23.326;2023-04-24T07:52:20;7.30;;;4.82;;
23658;SDS011;12006;42.666;23.326;2023-04-24T07:54:45;4.53;;;3.90;;
23658;SDS011;12006;42.666;23.326;2023-04-24T07:57:11;7.03;;;4.18;;
23658;SDS011;12006;42.666;23.326;2023-04-24T07:59:36;4.72;;;4.10;;
23658;SDS011;12006;42.666;23.326;2023-04-24T08:02:02;5.57;;;4.00;;
23658;SDS011;12006;42.666;23.326;2023-04-24T08:04:27;5.82;;;4.20;;
23658;SDS011;12006;42.666;23.326;2023-04-24T08:06:52;4.82;;;4.25;;
23658;SDS011;12006;42.666;23.326;2023-04-24T08:09:18;5.80;;;5.20;;
23658;SDS011;12006;42.666;23.326;2023-04-24T08:11:43;7.72;;;6.03;;
23658;SDS011;12006;42.666;23.326;2023-04-24T08:14:09;6.50;;;5.80;;
23658;SDS011;12006;42.666;23.326;2023-04-24T08:16:34;6.63;;;5.82;;
23658;SDS011;12006;42.666;23.326;2023-04-24T08:19:00;7.30;;;5.15;;
23658;SDS011;12006;42.666;23.326;2023-04-24T08:21:25;6.40;;;4.93;;
23658;SDS011;12006;42.666;23.326;2023-04-24T08:23:52;5.55;;;5.05;;
23658;SDS011;12006;42.666;23.326;2023-04-24T08:26:17;6.40;;;5.30;;
23658;SDS011;12006;42.666;23.326;2023-04-24T08:28:43;5.10;;;4.65;;
23658;SDS011;12006;42.666;23.326;2023-04-24T08:31:08;5.75;;;4.70;;
23658;SDS011;12006;42.666;23.326;2023-04-24T08:33:34;6.53;;;4.78;;
23658;SDS011;12006;42.666;23.326;2023-04-24T08:36:03;5.38;;;4.35;;
23658;SDS011;12006;42.666;23.326;2023-04-24T08:38:30;5.07;;;4.47;;
23658;SDS011;12006;42.666;23.326;2023-04-24T08:40:58;4.28;;;3.88;;
23658;SDS011;12006;42.666;23.326;2023-04-24T08:43:24;3.90;;;3.60;;
23658;SDS011;12006;42.666;23.326;2023-04-24T08:45:51;4.70;;;4.30;;
23658;SDS011;12006;42.666;23.326;2023-04-24T08:48:17;5.35;;;4.60;;
23658;SDS011;12006;42.666;23.326;2023-04-24T08:50:43;4.38;;;3.97;;
23658;SDS011;12006;42.666;23.326;2023-04-24T08:53:09;5.47;;;3.75;;
23658;SDS011;12006;42.666;23.326;2023-04-24T08:55:37;5.18;;;3.88;;
23658;SDS011;12006;42.666;23.326;2023-04-24T08:58:02;5.32;;;4.25;;
23658;SDS011;12006;42.666;23.326;2023-04-24T09:00:29;4.82;;;4.28;;
23658;SDS011;12006;42.666;23.326;2023-04-24T09:02:55;4.07;;;3.75;;
23658;SDS011;12006;42.666;23.326;2023-04-24T09:05:21;4.35;;;3.95;;
23658;SDS011;12006;42.666;23.326;2023-04-24T09:07:57;4.40;;;4.07;;
23658;SDS011;12006;42.666;23.326;2023-04-24T09:10:25;4.07;;;3.72;;
23658;SDS011;12006;42.666;23.326;2023-04-24T09:12:51;4.30;;;3.90;;
23658;SDS011;12006;42.666;23.326;2023-04-24T09:15:20;5.65;;;3.85;;
23658;SDS011;12006;42.666;23.326;2023-04-24T09:17:46;3.58;;;3.28;;
23658;SDS011;12006;42.666;23.326;2023-04-24T09:20:12;4.13;;;3.75;;
23658;SDS011;12006;42.666;23.326;2023-04-24T09:22:37;5.90;;;4.25;;
23658;SDS011;12006;42.666;23.326;2023-04-24T09:25:04;4.03;;;3.72;;
23658;SDS011;12006;42.666;23.326;2023-04-24T09:27:34;3.92;;;3.35;;
23658;SDS011;12006;42.666;23.326;2023-04-24T09:30:00;4.38;;;3.97;;
23658;SDS011;12006;42.666;23.326;2023-04-24T09:32:26;4.40;;;4.00;;
23658;SDS011;12006;42.666;23.326;2023-04-24T09:35:07;3.90;;;3.60;;
23658;SDS011;12006;42.666;23.326;2023-04-24T09:37:41;4.90;;;3.92;;
23658;SDS011;12006;42.666;23.326;2023-04-24T09:40:08;4.20;;;3.80;;
23658;SDS011;12006;42.666;23.326;2023-04-24T09:42:36;3.75;;;2.97;;
23658;SDS011;12006;42.666;23.326;2023-04-24T09:45:02;3.35;;;3.00;;
23658;SDS011;12006;42.666;23.326;2023-04-24T09:47:28;4.35;;;3.95;;
23658;SDS011;12006;42.666;23.326;2023-04-24T09:50:01;3.90;;;3.55;;
23658;SDS011;12006;42.666;23.326;2023-04-24T09:52:34;3.45;;;3.15;;
23658;SDS011;12006;42.666;23.326;2023-04-24T09:55:00;3.95;;;3.65;;
23658;SDS011;12006;42.666;23.326;2023-04-24T09:57:25;3.70;;;3.40;;
23658;SDS011;12006;42.666;23.326;2023-04-24T09:59:50;5.00;;;3.63;;
23658;SDS011;12006;42.666;23.326;2023-04-24T10:02:21;4.35;;;4.05;;
23658;SDS011;12006;42.666;23.326;2023-04-24T10:04:56;4.43;;;3.97;;
23658;SDS011;12006;42.666;23.326;2023-04-24T10:07:25;3.58;;;3.28;;
23658;SDS011;12006;42.666;23.326;2023-04-24T10:09:51;3.63;;;3.33;;
23658;SDS011;12006;42.666;23.326;2023-04-24T10:12:17;3.80;;;3.42;;
23658;SDS011;12006;42.666;23.326;2023-04-24T10:14:43;4.22;;;3.83;;
23658;SDS011;12006;42.666;23.326;2023-04-24T10:17:10;3.72;;;3.42;;
23658;SDS011;12006;42.666;23.326;2023-04-24T10:19:36;4.90;;;3.75;;
23658;SDS011;12006;42.666;23.326;2023-04-24T10:22:02;3.25;;;3.00;;
23658;SDS011;12006;42.666;23.326;2023-04-24T10:24:29;3.40;;;3.10;;
23658;SDS011;12006;42.666;23.326;2023-04-24T10:26:54;4.25;;;3.47;;
23658;SDS011;12006;42.666;23.326;2023-04-24T10:29:21;3.65;;;3.35;;
23658;SDS011;12006;42.666;23.326;2023-04-24T10:31:48;4.32;;;3.92;;
23658;SDS011;12006;42.666;23.326;2023-04-24T10:34:14;3.53;;;3.22;;
23658;SDS011;12006;42.666;23.326;2023-04-24T10:37:02;4.20;;;3.08;;
23658;SDS011;12006;42.666;23.326;2023-04-24T10:39:27;2.97;;;2.78;;
23658;SDS011;12006;42.666;23.326;2023-04-24T10:41:54;3.42;;;2.90;;
23658;SDS011;12006;42.666;23.326;2023-04-24T10:44:22;3.95;;;3.55;;
23658;SDS011;12006;42.666;23.326;2023-04-24T10:46:49;3.50;;;3.20;;
23658;SDS011;12006;42.666;23.326;2023-04-24T10:49:19;5.13;;;4.03;;
23658;SDS011;12006;42.666;23.326;2023-04-24T10:51:53;4.93;;;3.90;;
23658;SDS011;12006;42.666;23.326;2023-04-24T10:54:28;4.30;;;3.97;;
23658;SDS011;12006;42.666;23.326;2023-04-24T10:59:52;5.15;;;3.95;;
23658;SDS011;12006;42.666;23.326;2023-04-24T11:02:38;4.30;;;3.90;;
23658;SDS011;12006;42.666;23.326;2023-04-24T11:05:05;4.75;;;3.38;;
23658;SDS011;12006;42.666;23.326;2023-04-24T11:10:40;3.45;;;3.08;;
23658;SDS011;12006;42.666;23.326;2023-04-24T11:13:15;2.97;;;2.67;;
23658;SDS011;12006;42.666;23.326;2023-04-24T11:15:41;2.97;;;2.78;;
23658;SDS011;12006;42.666;23.326;2023-04-24T11:18:16;3.50;;;3.20;;
23658;SDS011;12006;42.666;23.326;2023-04-24T11:20:42;4.68;;;3.10;;
23658;SDS011;12006;42.666;23.326;2023-04-24T11:23:08;3.30;;;3.00;;
23658;SDS011;12006;42.666;23.326;2023-04-24T11:25:34;2.95;;;2.67;;
23658;SDS011;12006;42.666;23.326;2023-04-24T11:28:04;3.63;;;1.85;;
23658;SDS011;12006;42.666;23.326;2023-04-24T11:30:30;1.75;;;1.65;;
23658;SDS011;12006;42.666;23.326;2023-04-24T11:33:02;2.20;;;2.10;;
23658;SDS011;12006;42.666;23.326;2023-04-24T11:35:29;3.22;;;2.92;;
23658;SDS011;12006;42.666;23.326;2023-04-24T11:37:55;2.83;;;2.60;;
23658;SDS011;12006;42.666;23.326;2023-04-24T11:40:21;2.92;;;2.55;;
23658;SDS011;12006;42.666;23.326;2023-04-24T11:42:48;2.53;;;2.33;;
23658;SDS011;12006;42.666;23.326;2023-04-24T11:45:20;2.47;;;2.28;;
23658;SDS011;12006;42.666;23.326;2023-04-24T11:47:50;3.65;;;2.65;;
23658;SDS011;12006;42.666;23.326;2023-04-24T11:50:17;3.75;;;2.90;;
23658;SDS011;12006;42.666;23.326;2023-04-24T11:52:44;3.10;;;2.90;;
23658;SDS011;12006;42.666;23.326;2023-04-24T11:57:48;2.70;;;2.50;;
23658;SDS011;12006;42.666;23.326;2023-04-24T12:00:15;3.25;;;2.95;;
23658;SDS011;12006;42.666;23.326;2023-04-24T12:02:42;3.83;;;2.75;;
23658;SDS011;12006;42.666;23.326;2023-04-24T12:05:07;2.97;;;2.70;;
23658;SDS011;12006;42.666;23.326;2023-04-24T12:07:40;3.50;;;3.17;;
23658;SDS011;12006;42.666;23.326;2023-04-24T12:10:09;3.17;;;2.67;;
23658;SDS011;12006;42.666;23.326;2023-04-24T12:12:34;3.75;;;2.67;;
23658;SDS011;12006;42.666;23.326;2023-04-24T12:15:00;2.88;;;2.65;;
23658;SDS011;12006;42.666;23.326;2023-04-24T12:17:31;3.00;;;2.80;;
23658;SDS011;12006;42.666;23.326;2023-04-24T12:20:06;3.10;;;2.75;;
23658;SDS011;12006;42.666;23.326;2023-04-24T12:22:50;3.00;;;2.70;;
23658;SDS011;12006;42.666;23.326;2023-04-24T12:25:16;3.25;;;3.05;;
23658;SDS011;12006;42.666;23.326;2023-04-24T12:27:51;3.08;;;2.88;;
23658;SDS011;12006;42.666;23.326;2023-04-24T12:30:20;3.15;;;2.88;;
23658;SDS011;12006;42.666;23.326;2023-04-24T12:32:52;3.08;;;2.65;;
23658;SDS011;12006;42.666;23.326;2023-04-24T12:35:20;3.95;;;3.00;;
23658;SDS011;12006;42.666;23.326;2023-04-24T12:37:47;3.40;;;3.00;;
23658;SDS011;12006;42.666;23.326;2023-04-24T12:40:13;3.72;;;3.42;;
23658;SDS011;12006;42.666;23.326;2023-04-24T12:42:46;3.53;;;3.13;;
23658;SDS011;12006;42.666;23.326;2023-04-24T12:45:13;3.22;;;2.83;;
23658;SDS011;12006;42.666;23.326;2023-04-24T12:47:40;2.40;;;2.30;;
23658;SDS011;12006;42.666;23.326;2023-04-24T12:50:07;2.60;;;2.40;;
23658;SDS011;12006;42.666;23.326;2023-04-24T12:52:34;2.72;;;2.50;;
23658;SDS011;12006;42.666;23.326;2023-04-24T12:55:00;3.78;;;3.47;;
23658;SDS011;12006;42.666;23.326;2023-04-24T12:57:27;3.15;;;2.80;;
23658;SDS011;12006;42.666;23.326;2023-04-24T12:59:54;2.85;;;2.65;;
23658;SDS011;12006;42.666;23.326;2023-04-24T13:02:21;2.78;;;2.58;;
23658;SDS011;12006;42.666;23.326;2023-04-24T13:04:47;3.22;;;2.80;;
23658;SDS011;12006;42.666;23.326;2023-04-24T13:07:13;2.67;;;2.47;;
23658;SDS011;12006;42.666;23.326;2023-04-24T13:09:40;3.55;;;2.92;;
23658;SDS011;12006;42.666;23.326;2023-04-24T13:12:06;3.10;;;2.88;;
23658;SDS011;12006;42.666;23.326;2023-04-24T13:14:32;5.10;;;2.97;;
23658;SDS011;12006;42.666;23.326;2023-04-24T13:16:58;2.95;;;2.65;;
23658;SDS011;12006;42.666;23.326;2023-04-24T13:19:27;5.78;;;4.47;;
23658;SDS011;12006;42.666;23.326;2023-04-24T13:21:56;3.47;;;3.17;;
23658;SDS011;12006;42.666;23.326;2023-04-24T13:24:25;3.30;;;3.00;;
23658;SDS011;12006;42.666;23.326;2023-04-24T13:26:51;3.13;;;2.55;;
23658;SDS011;12006;42.666;23.326;2023-04-24T13:29:17;2.90;;;2.70;;
23658;SDS011;12006;42.666;23.326;2023-04-24T13:31:42;2.95;;;2.75;;
23658;SDS011;12006;42.666;23.326;2023-04-24T13:34:08;2.95;;;2.75;;
23658;SDS011;12006;42.666;23.326;2023-04-24T13:36:34;3.40;;;3.10;;
23658;SDS011;12006;42.666;23.326;2023-04-24T13:39:00;3.50;;;3.20;;
23658;SDS011;12006;42.666;23.326;2023-04-24T13:41:25;2.97;;;2.67;;
23658;SDS011;12006;42.666;23.326;2023-04-24T13:43:51;3.20;;;2.92;;
23658;SDS011;12006;42.666;23.326;2023-04-24T13:46:16;2.92;;;2.65;;
23658;SDS011;12006;42.666;23.326;2023-04-24T13:48:42;2.78;;;2.58;;
23658;SDS011;12006;42.666;23.326;2023-04-24T13:51:07;3.20;;;3.00;;
23658;SDS011;12006;42.666;23.326;2023-04-24T13:53:33;3.60;;;2.80;;
23658;SDS011;12006;42.666;23.326;2023-04-24T13:56:01;3.08;;;2.78;;
23658;SDS011;12006;42.666;23.326;2023-04-24T13:58:27;4.03;;;3.10;;
23658;SDS011;12006;42.666;23.326;2023-04-24T14:00:52;3.35;;;2.83;;
23658;SDS011;12006;42.666;23.326;2023-04-24T14:03:17;4.88;;;3.88;;
23658;SDS011;12006;42.666;23.326;2023-04-24T14:05:43;3.50;;;3.22;;
23658;SDS011;12006;42.666;23.326;2023-04-24T14:08:08;3.97;;;3.67;;
23658;SDS011;12006;42.666;23.326;2023-04-24T14:10:34;4.15;;;3.75;;
23658;SDS011;12006;42.666;23.326;2023-04-24T14:12:59;4.07;;;3.78;;
23658;SDS011;12006;42.666;23.326;2023-04-24T14:15:25;3.88;;;3.58;;
23658;SDS011;12006;42.666;23.326;2023-04-24T14:17:50;4.07;;;3.67;;
23658;SDS011;12006;42.666;23.326;2023-04-24T14:20:16;3.50;;;3.22;;
23658;SDS011;12006;42.666;23.326;2023-04-24T14:22:41;4.10;;;3.63;;
23658;SDS011;12006;42.666;23.326;2023-04-24T14:25:07;4.32;;;3.92;;
23658;SDS011;12006;42.666;23.326;2023-04-24T14:27:32;2.85;;;2.65;;
23658;SDS011;12006;42.666;23.326;2023-04-24T14:29:59;2.92;;;2.72;;
23658;SDS011;12006;42.666;23.326;2023-04-24T14:32:25;2.80;;;2.60;;
23658;SDS011;12006;42.666;23.326;2023-04-24T14:34:50;3.30;;;3.00;;
23658;SDS011;12006;42.666;23.326;2023-04-24T14:37:16;2.67;;;2.47;;